sensor_id;sensor_type;location;lat;lon;timestamp;pressure;altitude;pressure_sealevel;temperature;humidity
61337;BME280;47212;41.326;2.104;2023-03-01T00:01:37;101549.81;;;7.92;39.41
61337;BME280;47212;41.326;2.104;2023-03-01T00:06:39;101551.53;;;7.87;39.76
61337;BME280;47212;41.326;2.104;2023-03-01T00:11:41;101551.16;;;7.83;40.25
61337;BME280;47212;41.326;2.104;2023-03-01T00:16:45;101548.28;;;7.78;39.90
61337;BME280;47212;41.326;2.104;2023-03-01T00:21:49;101557.06;;;7.74;40.32
61337;BME280;47212;41.326;2.104;2023-03-01T00:26:53;101558.34;;;7.71;39.93
61337;BME280;47212;41.326;2.104;2023-03-01T00:31:57;101553.00;;;7.64;39.67
61337;BME280;47212;41.326;2.104;2023-03-01T00:37:04;101545.53;;;7.60;40.23
61337;BME280;47212;41.326;2.104;2023-03-01T00:42:06;101547.69;;;7.51;39.91
61337;BME280;47212;41.326;2.104;2023-03-01T00:47:10;101539.25;;;7.41;40.50
61337;BME280;47212;41.326;2.104;2023-03-01T00:52:12;101538.03;;;7.37;40.58
61337;BME280;47212;41.326;2.104;2023-03-01T00:57:14;101545.38;;;7.30;40.39
61337;BME280;47212;41.326;2.104;2023-03-01T01:02:16;101528.38;;;7.23;40.65
61337;BME280;47212;41.326;2.104;2023-03-01T01:07:23;101537.81;;;7.14;40.67
61337;BME280;47212;41.326;2.104;2023-03-01T01:12:34;101543.06;;;7.09;40.73
61337;BME280;47212;41.326;2.104;2023-03-01T01:17:36;101537.66;;;7.09;40.81
61337;BME280;47212;41.326;2.104;2023-03-01T01:22:38;101535.53;;;7.11;40.75
61337;BME280;47212;41.326;2.104;2023-03-01T01:27:40;101543.28;;;7.07;41.27
61337;BME280;47212;41.326;2.104;2023-03-01T01:32:47;101534.78;;;7.03;41.01
61337;BME280;47212;41.326;2.104;2023-03-01T01:37:49;101542.28;;;7.01;40.74
61337;BME280;47212;41.326;2.104;2023-03-01T01:42:51;101543.53;;;6.99;40.83
61337;BME280;47212;41.326;2.104;2023-03-01T01:47:56;101539.41;;;6.96;40.81
61337;BME280;47212;41.326;2.104;2023-03-01T01:52:59;101538.97;;;6.93;40.79
61337;BME280;47212;41.326;2.104;2023-03-01T01:58:03;101532.56;;;6.87;40.93
61337;BME280;47212;41.326;2.104;2023-03-01T02:05:32;101520.34;;;6.78;40.80
61337;BME280;47212;41.326;2.104;2023-03-01T02:10:37;101523.91;;;6.72;40.82
61337;BME280;47212;41.326;2.104;2023-03-01T02:15:40;101518.72;;;6.70;41.61
61337;BME280;47212;41.326;2.104;2023-03-01T02:26:40;101518.34;;;6.67;40.82
61337;BME280;47212;41.326;2.104;2023-03-01T02:32:09;101519.38;;;6.66;41.27
61337;BME280;47212;41.326;2.104;2023-03-01T02:37:14;101509.81;;;6.63;41.18
61337;BME280;47212;41.326;2.104;2023-03-01T02:42:33;101511.09;;;6.61;41.14
61337;BME280;47212;41.326;2.104;2023-03-01T02:47:37;101516.72;;;6.59;41.17
61337;BME280;47212;41.326;2.104;2023-03-01T02:52:57;101515.28;;;6.57;40.93
61337;BME280;47212;41.326;2.104;2023-03-01T02:58:03;101516.31;;;6.56;41.53
61337;BME280;47212;41.326;2.104;2023-03-01T03:03:08;101512.19;;;6.53;41.12
61337;BME280;47212;41.326;2.104;2023-03-01T03:08:11;101512.81;;;6.49;41.71
61337;BME280;47212;41.326;2.104;2023-03-01T03:13:21;101500.16;;;6.43;41.61
61337;BME280;47212;41.326;2.104;2023-03-01T03:18:24;101498.13;;;6.38;41.71
61337;BME280;47212;41.326;2.104;2023-03-01T03:23:30;101498.75;;;6.33;41.64
61337;BME280;47212;41.326;2.104;2023-03-01T03:28:33;101488.59;;;6.29;41.64
61337;BME280;47212;41.326;2.104;2023-03-01T03:33:36;101485.72;;;6.24;41.69
61337;BME280;47212;41.326;2.104;2023-03-01T03:38:39;101482.00;;;6.18;41.98
61337;BME280;47212;41.326;2.104;2023-03-01T03:43:43;101481.19;;;6.11;42.24
61337;BME280;47212;41.326;2.104;2023-03-01T03:48:50;101477.88;;;6.09;42.20
61337;BME280;47212;41.326;2.104;2023-03-01T03:54:04;101474.97;;;6.04;42.39
61337;BME280;47212;41.326;2.104;2023-03-01T03:59:06;101482.44;;;6.02;42.28
61337;BME280;47212;41.326;2.104;2023-03-01T04:04:08;101488.28;;;5.99;42.31
61337;BME280;47212;41.326;2.104;2023-03-01T04:09:12;101487.28;;;5.93;42.33
61337;BME280;47212;41.326;2.104;2023-03-01T04:14:14;101486.66;;;5.91;42.50
61337;BME280;47212;41.326;2.104;2023-03-01T04:19:16;101476.44;;;5.87;42.72
61337;BME280;47212;41.326;2.104;2023-03-01T04:24:19;101477.94;;;5.83;42.53
61337;BME280;47212;41.326;2.104;2023-03-01T04:29:21;101483.75;;;5.80;42.67
61337;BME280;47212;41.326;2.104;2023-03-01T04:34:24;101478.34;;;5.80;42.56
61337;BME280;47212;41.326;2.104;2023-03-01T04:39:28;101484.59;;;5.80;42.75
61337;BME280;47212;41.326;2.104;2023-03-01T04:44:30;101489.97;;;5.80;42.77
61337;BME280;47212;41.326;2.104;2023-03-01T04:49:32;101486.25;;;5.74;42.92
61337;BME280;47212;41.326;2.104;2023-03-01T04:54:35;101487.50;;;5.72;43.11
61337;BME280;47212;41.326;2.104;2023-03-01T04:59:37;101481.72;;;5.68;43.10
61337;BME280;47212;41.326;2.104;2023-03-01T05:18:49;101495.75;;;6.03;42.86
61337;BME280;47212;41.326;2.104;2023-03-01T05:23:52;101494.53;;;5.86;42.49
61337;BME280;47212;41.326;2.104;2023-03-01T05:28:54;101502.88;;;5.78;43.09
61337;BME280;47212;41.326;2.104;2023-03-01T05:34:01;101509.97;;;5.66;43.01
61337;BME280;47212;41.326;2.104;2023-03-01T05:39:03;101510.84;;;5.53;43.33
61337;BME280;47212;41.326;2.104;2023-03-01T05:44:06;101518.31;;;5.44;43.62
61337;BME280;47212;41.326;2.104;2023-03-01T05:49:15;101507.53;;;5.38;43.77
61337;BME280;47212;41.326;2.104;2023-03-01T05:54:18;101514.59;;;5.32;43.74
61337;BME280;47212;41.326;2.104;2023-03-01T05:59:21;101511.69;;;5.27;43.82
61337;BME280;47212;41.326;2.104;2023-03-01T06:04:23;101515.84;;;5.23;43.90
61337;BME280;47212;41.326;2.104;2023-03-01T06:09:25;101518.75;;;5.22;43.92
61337;BME280;47212;41.326;2.104;2023-03-01T06:14:27;101508.34;;;5.19;44.07
61337;BME280;47212;41.326;2.104;2023-03-01T06:19:33;101508.13;;;5.13;44.37
61337;BME280;47212;41.326;2.104;2023-03-01T06:24:35;101507.94;;;5.08;44.52
61337;BME280;47212;41.326;2.104;2023-03-01T06:29:37;101503.78;;;4.99;44.61
61337;BME280;47212;41.326;2.104;2023-03-01T06:35:07;101510.00;;;4.93;45.19
61337;BME280;47212;41.326;2.104;2023-03-01T06:40:15;101508.75;;;4.89;45.00
61337;BME280;47212;41.326;2.104;2023-03-01T06:45:19;101513.94;;;4.91;44.66
61337;BME280;47212;41.326;2.104;2023-03-01T06:50:21;101520.16;;;4.91;45.07
61337;BME280;47212;41.326;2.104;2023-03-01T06:55:24;101529.91;;;4.92;44.75
61337;BME280;47212;41.326;2.104;2023-03-01T07:00:27;101531.16;;;4.96;45.21
61337;BME280;47212;41.326;2.104;2023-03-01T07:05:30;101521.84;;;4.99;44.77
61337;BME280;47212;41.326;2.104;2023-03-01T07:10:33;101531.38;;;5.01;44.83
61337;BME280;47212;41.326;2.104;2023-03-01T07:15:40;101537.81;;;5.00;44.86
61337;BME280;47212;41.326;2.104;2023-03-01T07:20:42;101540.31;;;5.02;45.20
61337;BME280;47212;41.326;2.104;2023-03-01T07:25:54;101541.97;;;5.03;45.14
61337;BME280;47212;41.326;2.104;2023-03-01T07:31:01;101542.59;;;5.05;45.45
61337;BME280;47212;41.326;2.104;2023-03-01T07:36:05;101542.41;;;5.26;45.23
61337;BME280;47212;41.326;2.104;2023-03-01T07:41:08;101548.06;;;6.29;43.35
61337;BME280;47212;41.326;2.104;2023-03-01T07:46:10;101541.56;;;7.13;42.06
61337;BME280;47212;41.326;2.104;2023-03-01T07:51:15;101549.44;;;7.89;40.88
61337;BME280;47212;41.326;2.104;2023-03-01T07:56:17;101550.31;;;8.56;39.84
61337;BME280;47212;41.326;2.104;2023-03-01T08:01:21;101550.66;;;9.08;39.29
61337;BME280;47212;41.326;2.104;2023-03-01T08:06:27;101559.31;;;9.51;37.67
61337;BME280;47212;41.326;2.104;2023-03-01T08:11:30;101560.78;;;9.89;37.99
61337;BME280;47212;41.326;2.104;2023-03-01T08:16:32;101549.75;;;10.07;37.86
61337;BME280;47212;41.326;2.104;2023-03-01T08:21:37;101557.16;;;10.35;37.27
61337;BME280;47212;41.326;2.104;2023-03-01T08:26:39;101556.78;;;10.55;35.19
61337;BME280;47212;41.326;2.104;2023-03-01T08:31:49;101559.56;;;10.72;36.28
61337;BME280;47212;41.326;2.104;2023-03-01T08:36:52;101553.84;;;11.02;36.57
61337;BME280;47212;41.326;2.104;2023-03-01T08:41:54;101548.31;;;11.13;36.44
61337;BME280;47212;41.326;2.104;2023-03-01T08:46:57;101565.00;;;11.17;36.88
61337;BME280;47212;41.326;2.104;2023-03-01T08:52:01;101554.13;;;11.34;36.45
61337;BME280;47212;41.326;2.104;2023-03-01T09:02:18;101551.72;;;11.54;36.20
61337;BME280;47212;41.326;2.104;2023-03-01T09:07:20;101545.53;;;11.59;35.70
61337;BME280;47212;41.326;2.104;2023-03-01T09:12:22;101548.25;;;11.59;36.43
61337;BME280;47212;41.326;2.104;2023-03-01T09:17:30;101542.97;;;11.69;35.96
61337;BME280;47212;41.326;2.104;2023-03-01T09:22:35;101544.53;;;11.82;34.96
61337;BME280;47212;41.326;2.104;2023-03-01T09:27:37;101536.81;;;11.95;35.88
61337;BME280;47212;41.326;2.104;2023-03-01T09:32:39;101536.13;;;12.05;35.03
61337;BME280;47212;41.326;2.104;2023-03-01T09:37:44;101521.41;;;12.06;36.01
61337;BME280;47212;41.326;2.104;2023-03-01T09:43:07;101526.44;;;12.14;33.99
61337;BME280;47212;41.326;2.104;2023-03-01T09:48:20;101515.47;;;12.31;34.24
61337;BME280;47212;41.326;2.104;2023-03-01T09:53:31;101511.47;;;12.38;34.84
61337;BME280;47212;41.326;2.104;2023-03-01T09:58:51;101523.25;;;12.44;34.73
61337;BME280;47212;41.326;2.104;2023-03-01T10:09:16;101511.88;;;12.79;36.00
61337;BME280;47212;41.326;2.104;2023-03-01T10:24:34;101502.66;;;13.12;35.02
61337;BME280;47212;41.326;2.104;2023-03-01T10:30:01;101492.34;;;13.19;34.04
61337;BME280;47212;41.326;2.104;2023-03-01T10:35:23;101490.72;;;13.18;31.42
61337;BME280;47212;41.326;2.104;2023-03-01T10:40:28;101488.59;;;13.30;35.00
61337;BME280;47212;41.326;2.104;2023-03-01T10:45:37;101486.53;;;13.48;32.84
61337;BME280;47212;41.326;2.104;2023-03-01T10:50:42;101484.94;;;13.52;32.99
61337;BME280;47212;41.326;2.104;2023-03-01T10:55:57;101478.94;;;13.55;31.32
61337;BME280;47212;41.326;2.104;2023-03-01T11:01:05;101481.75;;;13.70;32.71
61337;BME280;47212;41.326;2.104;2023-03-01T11:11:32;101467.69;;;13.98;31.08
61337;BME280;47212;41.326;2.104;2023-03-01T11:16:37;101468.50;;;13.99;32.16
61337;BME280;47212;41.326;2.104;2023-03-01T11:26:54;101458.16;;;14.11;31.93
61337;BME280;47212;41.326;2.104;2023-03-01T11:32:06;101447.44;;;13.99;31.53
61337;BME280;47212;41.326;2.104;2023-03-01T11:37:32;101444.31;;;13.81;31.32
61337;BME280;47212;41.326;2.104;2023-03-01T11:43:15;101437.28;;;13.90;31.71
61337;BME280;47212;41.326;2.104;2023-03-01T12:10:33;101392.16;;;13.40;30.80
61337;BME280;47212;41.326;2.104;2023-03-01T12:15:42;101387.00;;;13.49;33.29
61337;BME280;47212;41.326;2.104;2023-03-01T12:27:14;101371.69;;;13.05;31.99
61337;BME280;47212;41.326;2.104;2023-03-01T12:32:43;101364.66;;;12.83;31.87
61337;BME280;47212;41.326;2.104;2023-03-01T12:48:40;101324.56;;;12.93;31.20
61337;BME280;47212;41.326;2.104;2023-03-01T12:53:51;101334.81;;;12.71;30.22
61337;BME280;47212;41.326;2.104;2023-03-01T13:09:27;101298.41;;;12.60;31.63
61337;BME280;47212;41.326;2.104;2023-03-01T13:19:34;101292.91;;;11.96;32.39
61337;BME280;47212;41.326;2.104;2023-03-01T13:24:41;101294.78;;;11.91;31.46
61337;BME280;47212;41.326;2.104;2023-03-01T13:29:49;101290.84;;;12.08;32.50
61337;BME280;47212;41.326;2.104;2023-03-01T13:45:40;101279.66;;;11.78;32.31
61337;BME280;47212;41.326;2.104;2023-03-01T13:50:51;101266.28;;;12.08;32.83
61337;BME280;47212;41.326;2.104;2023-03-01T13:56:09;101256.44;;;12.34;32.85
61337;BME280;47212;41.326;2.104;2023-03-01T14:01:23;101264.25;;;12.21;34.21
61337;BME280;47212;41.326;2.104;2023-03-01T14:06:32;101260.56;;;12.10;32.40
61337;BME280;47212;41.326;2.104;2023-03-01T14:22:40;101238.34;;;11.69;33.36
61337;BME280;47212;41.326;2.104;2023-03-01T14:27:44;101238.66;;;11.73;34.00
61337;BME280;47212;41.326;2.104;2023-03-01T14:33:00;101231.72;;;11.87;34.16
61337;BME280;47212;41.326;2.104;2023-03-01T14:38:03;101232.91;;;11.96;34.41
61337;BME280;47212;41.326;2.104;2023-03-01T14:43:11;101226.47;;;11.80;33.26
61337;BME280;47212;41.326;2.104;2023-03-01T14:48:14;101215.72;;;11.69;34.50
61337;BME280;47212;41.326;2.104;2023-03-01T14:53:20;101216.53;;;11.69;34.57
61337;BME280;47212;41.326;2.104;2023-03-01T14:58:27;101227.09;;;11.61;35.25
61337;BME280;47212;41.326;2.104;2023-03-01T15:03:31;101213.34;;;11.51;35.13
61337;BME280;47212;41.326;2.104;2023-03-01T15:08:35;101203.06;;;11.58;35.42
61337;BME280;47212;41.326;2.104;2023-03-01T15:13:40;101212.53;;;11.50;35.82
61337;BME280;47212;41.326;2.104;2023-03-01T15:18:48;101200.69;;;11.39;35.72
61337;BME280;47212;41.326;2.104;2023-03-01T15:29:24;101176.78;;;11.25;35.94
61337;BME280;47212;41.326;2.104;2023-03-01T15:34:30;101188.09;;;11.33;35.96
61337;BME280;47212;41.326;2.104;2023-03-01T15:39:41;101185.72;;;11.42;35.93
61337;BME280;47212;41.326;2.104;2023-03-01T15:44:45;101177.69;;;11.30;36.71
61337;BME280;47212;41.326;2.104;2023-03-01T15:49:47;101180.19;;;11.10;37.30
61337;BME280;47212;41.326;2.104;2023-03-01T15:54:58;101176.31;;;11.06;37.51
61337;BME280;47212;41.326;2.104;2023-03-01T16:00:09;101175.84;;;11.14;37.55
61337;BME280;47212;41.326;2.104;2023-03-01T16:05:19;101173.06;;;11.09;38.30
61337;BME280;47212;41.326;2.104;2023-03-01T16:10:22;101171.75;;;11.11;38.58
61337;BME280;47212;41.326;2.104;2023-03-01T16:15:33;101165.88;;;10.98;38.86
61337;BME280;47212;41.326;2.104;2023-03-01T16:20:39;101162.00;;;10.94;38.73
61337;BME280;47212;41.326;2.104;2023-03-01T16:25:41;101162.19;;;10.87;38.82
61337;BME280;47212;41.326;2.104;2023-03-01T16:30:46;101170.31;;;10.82;38.59
61337;BME280;47212;41.326;2.104;2023-03-01T16:35:50;101158.97;;;10.68;39.53
61337;BME280;47212;41.326;2.104;2023-03-01T16:40:53;101159.97;;;10.62;39.36
61337;BME280;47212;41.326;2.104;2023-03-01T16:45:55;101158.59;;;10.60;38.89
61337;BME280;47212;41.326;2.104;2023-03-01T16:51:00;101165.19;;;10.64;39.17
61337;BME280;47212;41.326;2.104;2023-03-01T16:56:05;101181.19;;;10.60;39.62
61337;BME280;47212;41.326;2.104;2023-03-01T17:01:10;101182.13;;;10.49;39.52
61337;BME280;47212;41.326;2.104;2023-03-01T17:06:16;101184.28;;;10.47;39.78
61337;BME280;47212;41.326;2.104;2023-03-01T17:11:22;101183.72;;;10.45;40.12
61337;BME280;47212;41.326;2.104;2023-03-01T17:16:24;101183.84;;;10.38;40.53
61337;BME280;47212;41.326;2.104;2023-03-01T17:21:28;101186.25;;;10.35;40.49
61337;BME280;47212;41.326;2.104;2023-03-01T17:26:31;101187.50;;;10.27;40.99
61337;BME280;47212;41.326;2.104;2023-03-01T17:31:37;101195.91;;;10.26;40.90
61337;BME280;47212;41.326;2.104;2023-03-01T17:36:39;101203.75;;;10.22;41.09
61337;BME280;47212;41.326;2.104;2023-03-01T17:41:45;101199.59;;;10.19;41.10
61337;BME280;47212;41.326;2.104;2023-03-01T17:46:47;101211.78;;;10.17;41.02
61337;BME280;47212;41.326;2.104;2023-03-01T17:51:49;101210.97;;;10.16;41.00
61337;BME280;47212;41.326;2.104;2023-03-01T17:56:52;101224.56;;;10.16;40.75
61337;BME280;47212;41.326;2.104;2023-03-01T18:01:54;101213.69;;;10.16;40.76
61337;BME280;47212;41.326;2.104;2023-03-01T18:06:56;101230.84;;;10.17;40.67
61337;BME280;47212;41.326;2.104;2023-03-01T18:11:59;101234.38;;;10.17;40.49
61337;BME280;47212;41.326;2.104;2023-03-01T18:17:02;101237.09;;;10.17;40.97
61337;BME280;47212;41.326;2.104;2023-03-01T18:22:07;101250.13;;;10.15;41.52
61337;BME280;47212;41.326;2.104;2023-03-01T18:27:10;101257.38;;;10.10;41.03
61337;BME280;47212;41.326;2.104;2023-03-01T18:32:12;101260.84;;;10.05;41.43
61337;BME280;47212;41.326;2.104;2023-03-01T18:37:15;101259.69;;;10.01;41.48
61337;BME280;47212;41.326;2.104;2023-03-01T18:42:21;101266.19;;;10.00;41.39
61337;BME280;47212;41.326;2.104;2023-03-01T18:47:23;101273.19;;;9.96;41.22
61337;BME280;47212;41.326;2.104;2023-03-01T18:52:26;101288.69;;;9.96;41.09
61337;BME280;47212;41.326;2.104;2023-03-01T18:57:28;101286.69;;;9.91;40.50
61337;BME280;47212;41.326;2.104;2023-03-01T19:02:32;101294.19;;;9.84;40.29
61337;BME280;47212;41.326;2.104;2023-03-01T19:07:35;101287.84;;;9.78;40.64
61337;BME280;47212;41.326;2.104;2023-03-01T19:12:37;101296.97;;;9.72;40.13
61337;BME280;47212;41.326;2.104;2023-03-01T19:17:39;101312.34;;;9.67;40.16
61337;BME280;47212;41.326;2.104;2023-03-01T19:22:45;101307.06;;;9.60;38.87
61337;BME280;47212;41.326;2.104;2023-03-01T19:27:47;101307.53;;;9.57;39.47
61337;BME280;47212;41.326;2.104;2023-03-01T19:32:49;101313.47;;;9.54;39.43
61337;BME280;47212;41.326;2.104;2023-03-01T19:37:53;101311.19;;;9.51;39.13
61337;BME280;47212;41.326;2.104;2023-03-01T19:42:55;101314.63;;;9.46;39.38
61337;BME280;47212;41.326;2.104;2023-03-01T19:47:57;101314.06;;;9.44;38.66
61337;BME280;47212;41.326;2.104;2023-03-01T19:53:06;101312.88;;;9.40;38.73
61337;BME280;47212;41.326;2.104;2023-03-01T19:58:09;101323.06;;;9.33;38.59
61337;BME280;47212;41.326;2.104;2023-03-01T20:03:12;101315.88;;;9.27;38.84
61337;BME280;47212;41.326;2.104;2023-03-01T20:08:14;101324.16;;;9.20;37.64
61337;BME280;47212;41.326;2.104;2023-03-01T20:13:16;101322.16;;;9.16;38.94
61337;BME280;47212;41.326;2.104;2023-03-01T20:18:21;101315.06;;;9.15;38.58
61337;BME280;47212;41.326;2.104;2023-03-01T20:23:24;101318.75;;;9.09;38.40
61337;BME280;47212;41.326;2.104;2023-03-01T20:28:26;101327.38;;;9.06;38.38
61337;BME280;47212;41.326;2.104;2023-03-01T20:33:28;101327.84;;;9.03;38.78
61337;BME280;47212;41.326;2.104;2023-03-01T20:38:30;101321.81;;;9.01;39.64
61337;BME280;47212;41.326;2.104;2023-03-01T20:43:33;101325.84;;;8.98;39.14
61337;BME280;47212;41.326;2.104;2023-03-01T20:48:41;101327.13;;;8.96;38.94
61337;BME280;47212;41.326;2.104;2023-03-01T20:53:49;101327.63;;;8.92;39.21
61337;BME280;47212;41.326;2.104;2023-03-01T20:58:51;101333.03;;;8.92;39.13
61337;BME280;47212;41.326;2.104;2023-03-01T21:03:53;101328.09;;;8.89;39.56
61337;BME280;47212;41.326;2.104;2023-03-01T21:08:55;101338.59;;;8.86;39.62
61337;BME280;47212;41.326;2.104;2023-03-01T21:13:57;101344.25;;;8.84;39.67
61337;BME280;47212;41.326;2.104;2023-03-01T21:18:59;101342.50;;;8.78;39.63
61337;BME280;47212;41.326;2.104;2023-03-01T21:24:02;101355.94;;;8.73;39.58
61337;BME280;47212;41.326;2.104;2023-03-01T21:29:05;101355.94;;;8.73;39.13
61337;BME280;47212;41.326;2.104;2023-03-01T21:34:07;101367.88;;;8.72;39.42
61337;BME280;47212;41.326;2.104;2023-03-01T21:39:12;101363.50;;;8.71;39.68
61337;BME280;47212;41.326;2.104;2023-03-01T21:44:15;101362.31;;;8.67;39.71
61337;BME280;47212;41.326;2.104;2023-03-01T21:49:17;101363.56;;;8.65;39.31
61337;BME280;47212;41.326;2.104;2023-03-01T21:54:20;101364.88;;;8.62;40.22
61337;BME280;47212;41.326;2.104;2023-03-01T21:59:26;101366.75;;;8.61;39.43
61337;BME280;47212;41.326;2.104;2023-03-01T22:04:30;101367.81;;;8.60;39.63
61337;BME280;47212;41.326;2.104;2023-03-01T22:09:32;101382.22;;;8.61;39.66
61337;BME280;47212;41.326;2.104;2023-03-01T22:14:35;101382.44;;;8.59;39.39
61337;BME280;47212;41.326;2.104;2023-03-01T22:19:37;101379.13;;;8.57;39.74
61337;BME280;47212;41.326;2.104;2023-03-01T22:24:39;101373.34;;;8.54;39.58
61337;BME280;47212;41.326;2.104;2023-03-01T22:29:41;101376.41;;;8.46;39.96
61337;BME280;47212;41.326;2.104;2023-03-01T22:34:44;101373.19;;;8.37;40.60
61337;BME280;47212;41.326;2.104;2023-03-01T22:39:46;101375.38;;;8.28;40.36
61337;BME280;47212;41.326;2.104;2023-03-01T22:44:48;101373.13;;;8.25;40.43
61337;BME280;47212;41.326;2.104;2023-03-01T22:49:56;101368.31;;;8.27;40.57
61337;BME280;47212;41.326;2.104;2023-03-01T22:54:58;101358.75;;;8.25;40.09
61337;BME280;47212;41.326;2.104;2023-03-01T23:00:00;101363.34;;;8.24;40.71
61337;BME280;47212;41.326;2.104;2023-03-01T23:05:03;101367.47;;;8.27;40.48
61337;BME280;47212;41.326;2.104;2023-03-01T23:10:05;101373.72;;;8.27;40.66
61337;BME280;47212;41.326;2.104;2023-03-01T23:15:08;101375.16;;;8.30;40.44
61337;BME280;47212;41.326;2.104;2023-03-01T23:20:11;101369.13;;;8.28;40.48
61337;BME280;47212;41.326;2.104;2023-03-01T23:25:19;101372.69;;;8.28;39.84
61337;BME280;47212;41.326;2.104;2023-03-01T23:30:21;101363.94;;;8.26;40.01
61337;BME280;47212;41.326;2.104;2023-03-01T23:35:23;101368.53;;;8.26;39.93
61337;BME280;47212;41.326;2.104;2023-03-01T23:40:25;101373.38;;;8.24;40.63
61337;BME280;47212;41.326;2.104;2023-03-01T23:45:27;101361.09;;;8.21;40.89
61337;BME280;47212;41.326;2.104;2023-03-01T23:50:34;101359.69;;;8.19;40.46
61337;BME280;47212;41.326;2.104;2023-03-01T23:55:37;101350.13;;;8.16;40.80
